Sand Springs, Montana
Current Conditions -  °F | °C
As of 7:15 PM on Saturday 22 Nov 2014 (Local Time) from KMVH Reporting Station
Broken Clouds Broken Clouds  
Wind Chill: 23°   Ceiling: 4800
Heat Index: 36°   Visibility: 10mi
Dew Point: 16°   Wind: 28mph
Humidity: 44%   Direction: 300°WNW
Pressure: 29.48"   Gusts: 45mph
Location:  47.1°N, 107.49°W
Report Text: KMVH 230215Z AUTO 30024G39KT 10SM FEW037 SCT043 BKN048 02/M09 A2948 RMK A01
Loading
Personal Weather Stations






























Interactive Weather Map New forecast layout! Learn more

10-Day Weather Forecast

Advertisements
Track Severe Weather on mobile